createdAt,value
2023-05-07T00:01:32.544Z,27.08
2023-05-07T00:04:01.333Z,25.23
2023-05-07T00:06:30.064Z,26.83
2023-05-07T00:09:00.908Z,28.48
2023-05-07T00:11:30.130Z,27.40
2023-05-07T00:13:58.756Z,26.13
2023-05-07T00:16:27.194Z,30.23
2023-05-07T00:19:02.376Z,28.05
2023-05-07T00:21:31.701Z,30.38
2023-05-07T00:24:01.426Z,29.75
2023-05-07T00:26:29.800Z,28.25
2023-05-07T00:28:58.088Z,31.17
2023-05-07T00:31:26.386Z,29.77
2023-05-07T00:33:55.205Z,30.33
2023-05-07T00:36:26.145Z,32.35
2023-05-07T00:39:00.326Z,31.90
2023-05-07T00:41:31.619Z,29.38
2023-05-07T00:44:03.677Z,36.38
2023-05-07T00:46:33.556Z,33.65
2023-05-07T00:49:02.791Z,32.17
2023-05-07T00:51:32.703Z,32.65
2023-05-07T00:54:02.112Z,27.58
2023-05-07T00:56:32.142Z,34.08
2023-05-07T00:59:00.668Z,31.75
2023-05-07T01:01:29.048Z,34.83
2023-05-07T01:03:57.569Z,33.47
2023-05-07T01:06:28.796Z,34.38
2023-05-07T01:08:57.979Z,37.95
2023-05-07T01:11:27.238Z,36.05
2023-05-07T01:13:57.588Z,33.95
2023-05-07T01:16:26.355Z,35.83
2023-05-07T01:18:54.661Z,35.15
2023-05-07T01:21:27.572Z,37.45
2023-05-07T01:23:59.670Z,39.47
2023-05-07T01:26:28.624Z,31.33
2023-05-07T01:28:57.271Z,36.28
2023-05-07T01:31:26.717Z,38.15
2023-05-07T01:33:55.955Z,35.80
2023-05-07T01:36:27.217Z,33.83
2023-05-07T01:38:59.645Z,37.55
2023-05-07T01:41:28.232Z,30.65
2023-05-07T01:43:59.018Z,32.42
2023-05-07T01:46:29.043Z,28.92
2023-05-07T01:48:57.457Z,30.35
2023-05-07T01:51:26.090Z,30.98
2023-05-07T01:53:55.257Z,30.77
2023-05-07T01:56:26.414Z,27.88
2023-05-07T01:58:54.852Z,33.25
2023-05-07T02:01:23.291Z,29.80
2023-05-07T02:03:51.802Z,32.55
2023-05-07T02:06:20.563Z,31.45
2023-05-07T02:08:49.389Z,31.13
2023-05-07T02:11:17.645Z,29.40
2023-05-07T02:13:47.818Z,28.88
2023-05-07T02:16:16.382Z,30.05
2023-05-07T02:18:44.737Z,30.42
2023-05-07T02:21:12.985Z,29.35
2023-05-07T02:23:41.377Z,28.10
2023-05-07T02:26:09.816Z,31.65
2023-05-07T02:28:38.177Z,28.75
2023-05-07T02:31:09.196Z,28.77
2023-05-07T02:33:37.942Z,28.30
2023-05-07T02:36:10.361Z,30.38
2023-05-07T02:38:38.991Z,28.77
2023-05-07T02:41:10.076Z,31.27
2023-05-07T02:43:38.672Z,30.25
2023-05-07T02:46:10.479Z,30.10
2023-05-07T02:48:38.914Z,31.83
2023-05-07T02:51:07.553Z,32.95
2023-05-07T02:53:36.213Z,30.23
2023-05-07T02:56:05.390Z,33.88
2023-05-07T02:58:33.748Z,32.88
2023-05-07T03:01:02.112Z,34.25
2023-05-07T03:03:32.434Z,32.25
2023-05-07T03:06:01.398Z,32.40
2023-05-07T03:08:29.879Z,30.98
2023-05-07T03:10:58.176Z,32.10
2023-05-07T03:13:28.071Z,32.05
2023-05-07T03:15:56.459Z,30.23
2023-05-07T03:18:25.005Z,31.77
2023-05-07T03:20:55.058Z,30.52
2023-05-07T03:23:24.904Z,32.45
2023-05-07T03:25:53.694Z,29.73
2023-05-07T03:28:22.114Z,32.65
2023-05-07T03:30:50.574Z,29.15
2023-05-07T03:33:19.241Z,28.90
2023-05-07T03:35:48.077Z,30.00
2023-05-07T03:38:18.036Z,32.10
2023-05-07T03:40:46.438Z,29.08
2023-05-07T03:43:15.264Z,31.45
2023-05-07T03:45:44.848Z,33.78
2023-05-07T03:48:13.356Z,32.35
2023-05-07T03:50:42.275Z,28.42
2023-05-07T03:53:11.352Z,31.33
2023-05-07T03:55:41.139Z,32.63
2023-05-07T03:58:09.404Z,30.40
2023-05-07T04:00:40.059Z,30.60
2023-05-07T04:03:08.654Z,29.48
2023-05-07T04:05:37.298Z,30.02
2023-05-07T04:08:06.657Z,29.30
2023-05-07T04:10:34.942Z,29.60
2023-05-07T04:13:07.581Z,27.45
2023-05-07T04:15:36.060Z,31.85
2023-05-07T04:18:04.557Z,29.40
2023-05-07T04:20:33.366Z,28.98
2023-05-07T04:23:02.133Z,30.55
2023-05-07T04:25:30.392Z,29.50
2023-05-07T04:27:58.796Z,29.40
2023-05-07T04:30:28.570Z,30.70
2023-05-07T04:32:57.256Z,27.67
2023-05-07T04:35:25.682Z,28.05
2023-05-07T04:37:54.039Z,30.75
2023-05-07T04:40:22.517Z,27.65
2023-05-07T04:42:50.750Z,30.75
2023-05-07T04:45:19.373Z,28.70
2023-05-07T04:47:49.340Z,28.52
2023-05-07T04:50:18.739Z,30.70
2023-05-07T04:52:47.352Z,32.03
2023-05-07T04:55:15.878Z,31.42
2023-05-07T04:57:47.269Z,31.65
2023-05-07T05:00:17.687Z,28.30
2023-05-07T05:02:46.202Z,30.20
2023-05-07T05:05:15.877Z,32.17
2023-05-07T05:07:44.252Z,31.10
2023-05-07T05:10:12.736Z,32.65
2023-05-07T05:12:41.309Z,36.25
2023-05-07T05:15:13.706Z,33.80
2023-05-07T05:17:42.134Z,34.47
2023-05-07T05:20:12.072Z,34.22
2023-05-07T05:22:42.601Z,35.13
2023-05-07T05:25:12.854Z,38.40
2023-05-07T05:27:41.713Z,35.38
2023-05-07T05:30:10.988Z,36.65
2023-05-07T05:32:39.646Z,36.67
2023-05-07T05:35:08.811Z,34.17
2023-05-07T05:37:37.265Z,36.25
2023-05-07T05:40:08.501Z,33.65
2023-05-07T05:42:36.839Z,32.03
2023-05-07T05:45:06.035Z,30.88
2023-05-07T05:47:34.344Z,33.35
2023-05-07T05:50:02.521Z,31.38
2023-05-07T05:52:31.326Z,32.25
2023-05-07T05:54:59.660Z,33.15
2023-05-07T05:57:29.412Z,35.60
2023-05-07T05:59:57.727Z,30.77
2023-05-07T06:02:26.300Z,29.35
2023-05-07T06:04:55.701Z,34.65
2023-05-07T06:07:24.296Z,31.85
2023-05-07T06:09:52.783Z,30.73
2023-05-07T06:12:21.057Z,30.00
2023-05-07T06:14:50.741Z,28.90
2023-05-07T06:17:21.609Z,31.35
2023-05-07T06:19:50.402Z,28.10
2023-05-07T06:22:18.709Z,25.65
2023-05-07T06:24:47.284Z,26.48
2023-05-07T06:27:15.627Z,31.13
2023-05-07T06:29:43.999Z,27.05
2023-05-07T06:32:16.214Z,29.30
2023-05-07T06:34:44.537Z,27.70
2023-05-07T06:37:13.101Z,30.30
2023-05-07T06:39:41.334Z,27.60
2023-05-07T06:42:09.584Z,29.70
2023-05-07T06:44:38.459Z,29.98
2023-05-07T06:47:07.021Z,24.02
2023-05-07T06:49:36.835Z,25.80
2023-05-07T06:52:05.367Z,24.67
2023-05-07T06:54:33.733Z,29.40
2023-05-07T06:57:02.199Z,23.48
2023-05-07T06:59:30.847Z,22.85
2023-05-07T07:02:03.379Z,22.65
2023-05-07T07:04:32.181Z,22.13
2023-05-07T07:07:02.273Z,23.08
2023-05-07T07:09:30.759Z,24.67
2023-05-07T07:12:00.290Z,25.80
2023-05-07T07:14:28.690Z,21.25
2023-05-07T07:16:56.998Z,23.10
2023-05-07T07:19:25.418Z,23.40
2023-05-07T07:21:53.620Z,22.30
2023-05-07T07:24:23.314Z,21.75
2023-05-07T07:26:51.626Z,20.33
2023-05-07T07:29:20.999Z,22.38
2023-05-07T07:31:50.413Z,21.58
2023-05-07T07:34:18.756Z,19.38
2023-05-07T07:36:47.181Z,20.80
2023-05-07T07:39:15.602Z,18.77
2023-05-07T07:41:45.376Z,21.40
2023-05-07T07:44:15.687Z,20.50
2023-05-07T07:46:45.004Z,19.50
2023-05-07T07:49:13.372Z,17.33
2023-05-07T07:51:41.736Z,16.35
2023-05-07T07:54:10.040Z,17.98
2023-05-07T07:56:38.481Z,16.35
2023-05-07T07:59:08.535Z,17.55
2023-05-07T08:01:38.715Z,15.68
2023-05-07T08:04:09.930Z,15.00
2023-05-07T08:06:38.722Z,14.20
2023-05-07T08:09:07.002Z,11.93
2023-05-07T08:11:35.637Z,14.75
2023-05-07T08:14:04.329Z,12.40
2023-05-07T08:16:36.702Z,12.20
2023-05-07T08:19:05.676Z,11.07
2023-05-07T08:21:34.964Z,10.90
2023-05-07T08:24:03.243Z,10.13
2023-05-07T08:26:31.567Z,10.88
2023-05-07T08:29:00.333Z,10.65
2023-05-07T08:31:28.897Z,9.63
2023-05-07T08:34:00.279Z,8.60
2023-05-07T08:36:29.680Z,8.63
2023-05-07T08:38:58.037Z,8.50
2023-05-07T08:41:26.584Z,8.38
2023-05-07T08:43:56.189Z,10.00
2023-05-07T08:46:24.930Z,8.50
2023-05-07T08:48:53.742Z,11.23
2023-05-07T08:51:23.889Z,9.70
2023-05-07T08:53:52.806Z,9.25
2023-05-07T08:56:22.766Z,9.80
2023-05-07T08:58:51.483Z,10.70
2023-05-07T09:01:31.749Z,9.05
2023-05-07T09:04:00.882Z,11.32
2023-05-07T09:06:39.118Z,12.18
2023-05-07T09:09:07.479Z,10.38
2023-05-07T09:11:36.501Z,9.23
2023-05-07T09:14:05.938Z,10.00
2023-05-07T09:16:35.388Z,10.18
2023-05-07T09:19:03.807Z,10.32
2023-05-07T09:21:32.671Z,9.90
2023-05-07T09:24:03.425Z,11.07
2023-05-07T09:26:33.991Z,10.40
2023-05-07T09:29:03.264Z,11.23
2023-05-07T09:31:33.888Z,10.48
2023-05-07T09:34:02.130Z,16.40
2023-05-07T09:36:30.677Z,9.15
2023-05-07T09:39:03.746Z,11.70
2023-05-07T09:41:33.796Z,10.35
2023-05-07T09:44:02.803Z,9.50
2023-05-07T09:46:33.343Z,11.63
2023-05-07T09:49:03.675Z,12.38
2023-05-07T09:51:36.213Z,13.40
2023-05-07T09:54:07.507Z,14.18
2023-05-07T09:56:38.769Z,12.45
2023-05-07T09:59:09.108Z,12.40
2023-05-07T10:01:39.355Z,12.20
2023-05-07T10:04:09.398Z,11.98
2023-05-07T10:06:38.686Z,11.55
2023-05-07T10:09:08.889Z,11.32
2023-05-07T10:11:37.900Z,12.00
2023-05-07T10:14:07.466Z,13.20
2023-05-07T10:16:37.942Z,12.38
2023-05-07T10:19:06.789Z,15.30
2023-05-07T10:21:38.714Z,14.82
2023-05-07T10:24:15.049Z,13.73
2023-05-07T10:26:45.297Z,13.98
2023-05-07T10:29:17.713Z,14.43
2023-05-07T10:31:59.950Z,15.30
2023-05-07T10:34:34.999Z,16.42
2023-05-07T10:37:04.391Z,15.70
2023-05-07T10:39:34.051Z,14.93
2023-05-07T10:42:10.791Z,17.90
2023-05-07T10:44:39.555Z,15.18
2023-05-07T10:47:10.649Z,15.95
2023-05-07T10:50:00.406Z,17.27
2023-05-07T10:52:28.732Z,19.30
2023-05-07T10:55:23.536Z,17.95
2023-05-07T10:57:51.983Z,20.40
2023-05-07T11:00:45.776Z,21.00
2023-05-07T11:03:15.748Z,23.05
2023-05-07T11:05:44.757Z,24.40
2023-05-07T11:08:13.079Z,24.70
2023-05-07T11:10:53.643Z,23.55
2023-05-07T11:13:45.729Z,24.17
2023-05-07T11:16:21.020Z,23.52
2023-05-07T11:18:51.025Z,23.23
2023-05-07T11:21:35.903Z,24.00
2023-05-07T11:24:06.359Z,24.20
2023-05-07T11:26:46.269Z,22.40
2023-05-07T11:29:16.984Z,23.65
2023-05-07T11:31:50.419Z,21.60
2023-05-07T11:34:23.974Z,22.67
2023-05-07T11:36:55.395Z,21.63
2023-05-07T11:39:31.543Z,25.42
2023-05-07T11:42:01.935Z,23.73
2023-05-07T11:44:47.596Z,24.58
2023-05-07T11:47:20.444Z,22.15
2023-05-07T11:49:50.164Z,23.40
2023-05-07T11:52:19.228Z,25.65
2023-05-07T11:54:51.719Z,21.67
2023-05-07T11:57:21.486Z,26.00
2023-05-07T11:59:49.749Z,27.73
2023-05-07T12:02:19.095Z,22.23
2023-05-07T12:04:47.476Z,22.98
2023-05-07T12:07:17.661Z,26.88
2023-05-07T12:09:46.500Z,22.60
2023-05-07T12:12:16.475Z,22.52
2023-05-07T12:14:47.792Z,21.38
2023-05-07T12:17:17.600Z,24.20
2023-05-07T12:19:47.926Z,22.75
2023-05-07T12:22:17.072Z,22.65
2023-05-07T12:24:49.179Z,25.15
2023-05-07T12:27:18.530Z,26.15
2023-05-07T12:29:49.559Z,22.08
2023-05-07T12:32:18.970Z,21.55
2023-05-07T12:34:47.677Z,21.42
2023-05-07T12:37:15.973Z,21.52
2023-05-07T12:39:49.594Z,18.67
2023-05-07T12:42:18.716Z,20.08
2023-05-07T12:44:49.393Z,21.42
2023-05-07T12:47:18.148Z,20.73
2023-05-07T12:49:47.306Z,23.13
2023-05-07T12:52:16.063Z,23.70
2023-05-07T12:54:44.251Z,21.40
2023-05-07T12:57:12.929Z,24.02
2023-05-07T12:59:43.093Z,23.67
2023-05-07T13:02:12.906Z,23.23
2023-05-07T13:04:41.230Z,23.27
2023-05-07T13:07:11.920Z,19.92
2023-05-07T13:09:40.134Z,20.55
2023-05-07T13:12:08.872Z,22.08
2023-05-07T13:14:37.071Z,23.02
2023-05-07T13:17:06.945Z,21.15
2023-05-07T13:19:38.446Z,21.73
2023-05-07T13:22:06.802Z,18.98
2023-05-07T13:24:35.623Z,19.60
2023-05-07T13:27:05.083Z,20.85
2023-05-07T13:29:33.351Z,19.88
2023-05-07T13:32:01.888Z,18.50
2023-05-07T13:34:31.035Z,17.42
2023-05-07T13:37:00.683Z,16.58
2023-05-07T13:39:29.064Z,17.70
2023-05-07T13:41:57.375Z,19.52
2023-05-07T13:44:25.564Z,19.55
2023-05-07T13:46:53.832Z,19.55
2023-05-07T13:49:22.105Z,18.42
2023-05-07T13:51:50.500Z,18.80
2023-05-07T13:54:20.111Z,19.73
2023-05-07T13:56:48.477Z,18.83
2023-05-07T13:59:16.764Z,19.27
2023-05-07T14:01:45.120Z,17.83
2023-05-07T14:04:13.314Z,20.42
2023-05-07T14:06:41.640Z,19.15
2023-05-07T14:09:10.035Z,21.67
2023-05-07T14:11:40.250Z,19.67
2023-05-07T14:14:08.527Z,20.02
2023-05-07T14:16:36.923Z,19.48
2023-05-07T14:19:05.344Z,18.58
2023-05-07T14:21:33.573Z,18.83
2023-05-07T14:24:02.110Z,17.05
2023-05-07T14:26:30.559Z,16.48
2023-05-07T14:29:01.310Z,15.70
2023-05-07T14:31:32.086Z,18.88
2023-05-07T14:34:00.867Z,15.18
2023-05-07T14:36:29.377Z,15.13
2023-05-07T14:39:00.161Z,12.88
2023-05-07T14:41:28.461Z,16.30
2023-05-07T14:43:56.779Z,14.27
2023-05-07T14:46:26.934Z,13.00
2023-05-07T14:48:55.806Z,18.98
2023-05-07T14:51:24.628Z,14.50
2023-05-07T14:53:53.134Z,16.77
2023-05-07T14:56:21.557Z,13.25
2023-05-07T14:58:50.422Z,14.10
2023-05-07T15:01:18.754Z,14.77
2023-05-07T15:03:48.901Z,14.32
2023-05-07T15:06:17.220Z,13.25
2023-05-07T15:08:45.610Z,13.43
2023-05-07T15:11:13.930Z,12.43
2023-05-07T15:13:44.000Z,12.48
2023-05-07T15:16:12.202Z,12.43
2023-05-07T15:18:40.447Z,12.48
2023-05-07T15:21:10.589Z,11.48
2023-05-07T15:23:38.802Z,13.43
2023-05-07T15:26:08.570Z,13.20
2023-05-07T15:28:36.826Z,14.45
2023-05-07T15:31:06.258Z,13.80
2023-05-07T15:33:34.570Z,14.77
2023-05-07T15:36:04.182Z,15.25
2023-05-07T15:38:34.048Z,16.08
2023-05-07T15:41:02.292Z,14.10
2023-05-07T15:43:30.675Z,13.23
2023-05-07T15:45:58.965Z,13.25
2023-05-07T15:48:27.504Z,13.35
2023-05-07T15:50:56.313Z,12.57
2023-05-07T15:53:24.759Z,13.50
2023-05-07T15:55:54.817Z,13.75
2023-05-07T15:58:22.980Z,14.50
2023-05-07T16:00:51.971Z,11.48
2023-05-07T16:03:22.311Z,10.98
2023-05-07T16:05:51.053Z,10.40
2023-05-07T16:08:19.507Z,10.32
2023-05-07T16:10:47.802Z,10.27
2023-05-07T16:13:19.332Z,10.35
2023-05-07T16:15:48.127Z,12.57
2023-05-07T16:18:16.602Z,10.35
2023-05-07T16:20:45.206Z,9.40
2023-05-07T16:23:13.499Z,9.73
2023-05-07T16:25:42.194Z,9.43
2023-05-07T16:28:10.646Z,10.40
2023-05-07T16:30:40.424Z,10.27
2023-05-07T16:33:09.297Z,9.98
2023-05-07T16:35:38.291Z,9.32
2023-05-07T16:38:10.217Z,12.73
2023-05-07T16:40:40.222Z,10.18
2023-05-07T16:43:08.717Z,12.38
2023-05-07T16:45:36.970Z,10.10
2023-05-07T16:48:08.567Z,10.48
2023-05-07T16:50:37.150Z,11.02
2023-05-07T16:53:07.838Z,10.50
2023-05-07T16:55:38.933Z,11.80
2023-05-07T16:58:08.108Z,10.45
2023-05-07T17:00:49.128Z,10.07
2023-05-07T17:03:20.886Z,11.45
2023-05-07T17:05:49.347Z,9.25
2023-05-07T17:08:17.597Z,9.52
2023-05-07T17:10:46.229Z,9.25
2023-05-07T17:13:14.859Z,8.77
2023-05-07T17:15:43.722Z,8.50
2023-05-07T17:18:12.280Z,9.63
2023-05-07T17:20:41.861Z,9.15
2023-05-07T17:23:10.050Z,8.75
2023-05-07T17:25:38.320Z,8.05
2023-05-07T17:28:07.087Z,8.25
2023-05-07T17:30:35.794Z,8.75
2023-05-07T17:33:19.441Z,8.55
2023-05-07T17:35:51.731Z,8.20
2023-05-07T17:38:19.955Z,8.98
2023-05-07T17:40:52.561Z,8.32
2023-05-07T17:43:22.846Z,8.80
2023-05-07T17:45:51.377Z,9.65
2023-05-07T17:48:19.821Z,12.93
2023-05-07T17:50:48.221Z,8.23
2023-05-07T17:53:20.551Z,8.20
2023-05-07T17:56:41.133Z,8.98
2023-05-07T18:00:41.974Z,8.40
2023-05-07T18:03:26.095Z,8.63
2023-05-07T18:05:55.016Z,7.70
2023-05-07T18:08:33.332Z,9.95
2023-05-07T18:11:02.350Z,8.50
2023-05-07T18:13:49.301Z,8.35
2023-05-07T18:24:40.364Z,8.05
2023-05-07T18:27:08.681Z,9.65
2023-05-07T18:29:37.097Z,9.48
2023-05-07T18:32:20.739Z,12.27
2023-05-07T18:38:36.335Z,10.60
2023-05-07T18:41:14.974Z,12.23
2023-05-07T18:43:44.032Z,12.88
2023-05-07T18:46:12.945Z,10.73
2023-05-07T18:48:41.308Z,10.77
2023-05-07T18:51:12.685Z,9.77
2023-05-07T18:53:41.068Z,12.45
2023-05-07T18:56:10.765Z,10.85
2023-05-07T18:58:39.097Z,9.90
2023-05-07T19:01:08.608Z,10.52
2023-05-07T19:03:43.294Z,9.60
2023-05-07T19:06:11.880Z,11.18
2023-05-07T19:08:40.491Z,8.95
2023-05-07T19:11:10.518Z,9.60
2023-05-07T19:13:39.131Z,8.38
2023-05-07T19:16:10.458Z,7.68
2023-05-07T19:18:39.148Z,9.48
2023-05-07T19:21:07.910Z,8.35
2023-05-07T19:23:41.829Z,8.45
2023-05-07T19:26:12.446Z,9.85
2023-05-07T19:29:16.453Z,7.35
2023-05-07T19:32:01.728Z,7.85
2023-05-07T19:34:30.793Z,8.38
2023-05-07T19:36:59.084Z,7.53
2023-05-07T19:39:27.796Z,7.35
2023-05-07T19:41:58.181Z,8.30
2023-05-07T19:44:26.478Z,8.70
2023-05-07T19:46:54.772Z,10.02
2023-05-07T19:49:26.834Z,7.10
2023-05-07T19:51:55.340Z,6.57
2023-05-07T19:54:23.896Z,8.55
2023-05-07T19:56:54.668Z,9.70
2023-05-07T19:59:33.121Z,7.57
2023-05-07T20:02:05.679Z,8.45
2023-05-07T20:04:43.931Z,10.05
2023-05-07T20:07:19.096Z,5.93
2023-05-07T20:09:48.741Z,7.53
2023-05-07T20:12:21.420Z,6.03
2023-05-07T20:14:54.112Z,6.32
2023-05-07T20:17:27.542Z,7.85
2023-05-07T20:19:59.614Z,6.53
2023-05-07T20:22:39.775Z,8.20
2023-05-07T20:25:14.675Z,6.15
2023-05-07T20:27:43.445Z,5.60
2023-05-07T20:30:15.259Z,5.50
2023-05-07T20:32:43.890Z,5.22
2023-05-07T20:35:12.289Z,5.22
2023-05-07T20:37:41.147Z,6.07
2023-05-07T20:40:10.786Z,5.03
2023-05-07T20:42:40.134Z,6.93
2023-05-07T20:55:37.510Z,6.80
2023-05-07T20:58:06.671Z,6.35
2023-05-07T21:00:36.584Z,5.63
2023-05-07T21:03:05.389Z,5.20
2023-05-07T21:05:34.036Z,5.15
2023-05-07T21:08:02.358Z,5.88
2023-05-07T21:10:31.141Z,6.85
2023-05-07T21:12:59.689Z,5.72
2023-05-07T21:15:28.303Z,5.90
2023-05-07T21:17:58.154Z,5.32
2023-05-07T21:20:35.345Z,6.53
2023-05-07T21:23:04.383Z,6.43
2023-05-07T21:25:32.640Z,6.15
2023-05-07T21:28:01.234Z,5.97
2023-05-07T21:30:30.262Z,6.25
2023-05-07T21:32:59.956Z,6.65
2023-05-07T21:35:28.310Z,6.28
2023-05-07T21:38:00.754Z,6.45
2023-05-07T21:40:29.292Z,6.03
2023-05-07T21:42:57.648Z,13.55
2023-05-07T21:45:25.934Z,9.88
2023-05-07T21:47:54.286Z,6.45
2023-05-07T21:50:24.344Z,6.18
2023-05-07T21:52:53.246Z,9.07
2023-05-07T21:55:25.184Z,10.32
2023-05-07T21:58:04.091Z,7.03
2023-05-07T22:00:34.186Z,7.22
2023-05-07T22:03:03.032Z,8.35
2023-05-07T22:05:32.988Z,9.25
2023-05-07T22:08:01.241Z,7.32
2023-05-07T22:10:29.627Z,8.85
2023-05-07T22:12:58.249Z,10.43
2023-05-07T22:15:26.678Z,7.55
2023-05-07T22:17:55.175Z,9.05
2023-05-07T22:20:23.519Z,9.52
2023-05-07T22:22:54.966Z,8.80
2023-05-07T22:25:24.581Z,8.05
2023-05-07T22:27:53.117Z,10.05
2023-05-07T22:30:21.568Z,8.88
2023-05-07T22:32:49.856Z,8.77
2023-05-07T22:35:18.104Z,11.50
2023-05-07T22:37:47.282Z,10.18
2023-05-07T22:40:17.601Z,9.73
2023-05-07T22:42:46.093Z,12.15
2023-05-07T22:45:14.363Z,10.13
2023-05-07T22:47:42.773Z,9.15
2023-05-07T22:50:12.392Z,10.18
2023-05-07T22:52:40.860Z,9.43
2023-05-07T22:55:09.951Z,8.98
2023-05-07T22:57:39.878Z,9.57
2023-05-07T23:00:10.158Z,9.82
2023-05-07T23:02:38.687Z,12.00
2023-05-07T23:05:07.663Z,17.30
2023-05-07T23:07:36.549Z,10.23
2023-05-07T23:10:06.167Z,9.52
2023-05-07T23:12:34.508Z,9.75
2023-05-07T23:15:04.445Z,10.32
2023-05-07T23:17:34.467Z,11.65
2023-05-07T23:20:03.294Z,12.32
2023-05-07T23:22:31.756Z,10.07
2023-05-07T23:25:00.820Z,11.20
2023-05-07T23:27:29.291Z,12.98
2023-05-07T23:29:57.968Z,10.70
2023-05-07T23:32:27.742Z,11.43
2023-05-07T23:34:57.214Z,12.35
2023-05-07T23:37:25.533Z,10.65
2023-05-07T23:39:56.875Z,12.27
2023-05-07T23:42:25.938Z,11.02
2023-05-07T23:44:54.955Z,14.98
2023-05-07T23:47:23.386Z,11.65
2023-05-07T23:49:53.140Z,12.70
2023-05-07T23:52:21.852Z,9.77
2023-05-07T23:54:50.702Z,11.38
2023-05-07T23:57:19.288Z,11.52
2023-05-07T23:59:48.355Z,11.13
